sensor_id;sensor_type;location;lat;lon;timestamp;temperature;humidity
2571;DHT22;1295;51.130;6.732;2024-01-30T00:01:13;9.60;99.90
2571;DHT22;1295;51.130;6.732;2024-01-30T00:03:39;9.50;99.90
2571;DHT22;1295;51.130;6.732;2024-01-30T00:06:05;9.60;99.90
2571;DHT22;1295;51.130;6.732;2024-01-30T00:08:30;9.60;99.90
2571;DHT22;1295;51.130;6.732;2024-01-30T00:10:56;9.60;99.90
2571;DHT22;1295;51.130;6.732;2024-01-30T00:13:22;9.70;99.90
2571;DHT22;1295;51.130;6.732;2024-01-30T00:15:47;9.70;99.90
2571;DHT22;1295;51.130;6.732;2024-01-30T00:18:13;9.70;99.90
2571;DHT22;1295;51.130;6.732;2024-01-30T00:20:38;9.60;99.90
2571;DHT22;1295;51.130;6.732;2024-01-30T00:23:04;9.60;99.90
2571;DHT22;1295;51.130;6.732;2024-01-30T00:25:30;9.50;99.90
2571;DHT22;1295;51.130;6.732;2024-01-30T00:27:55;9.60;99.90
2571;DHT22;1295;51.130;6.732;2024-01-30T00:30:22;9.70;99.90
2571;DHT22;1295;51.130;6.732;2024-01-30T00:32:48;9.50;99.90
2571;DHT22;1295;51.130;6.732;2024-01-30T00:35:14;9.50;99.90
2571;DHT22;1295;51.130;6.732;2024-01-30T00:37:40;9.50;99.90
2571;DHT22;1295;51.130;6.732;2024-01-30T00:40:07;9.50;99.90
2571;DHT22;1295;51.130;6.732;2024-01-30T00:42:34;9.50;99.90
2571;DHT22;1295;51.130;6.732;2024-01-30T00:44:59;9.50;99.90
2571;DHT22;1295;51.130;6.732;2024-01-30T00:47:25;9.40;99.90
2571;DHT22;1295;51.130;6.732;2024-01-30T00:49:51;9.40;99.90
2571;DHT22;1295;51.130;6.732;2024-01-30T00:52:16;9.40;99.90
2571;DHT22;1295;51.130;6.732;2024-01-30T00:54:42;9.40;99.90
2571;DHT22;1295;51.130;6.732;2024-01-30T00:57:07;9.50;99.90
2571;DHT22;1295;51.130;6.732;2024-01-30T00:59:33;9.50;99.90
2571;DHT22;1295;51.130;6.732;2024-01-30T01:01:59;9.40;99.90
2571;DHT22;1295;51.130;6.732;2024-01-30T01:04:24;9.40;99.90
2571;DHT22;1295;51.130;6.732;2024-01-30T01:06:50;9.40;99.90
2571;DHT22;1295;51.130;6.732;2024-01-30T01:09:15;9.40;99.90
2571;DHT22;1295;51.130;6.732;2024-01-30T01:11:41;9.40;99.90
2571;DHT22;1295;51.130;6.732;2024-01-30T01:14:07;9.40;99.90
2571;DHT22;1295;51.130;6.732;2024-01-30T01:16:33;9.40;99.90
2571;DHT22;1295;51.130;6.732;2024-01-30T01:18:58;9.40;99.90
2571;DHT22;1295;51.130;6.732;2024-01-30T01:21:24;9.10;99.90
2571;DHT22;1295;51.130;6.732;2024-01-30T01:23:49;9.30;99.90
2571;DHT22;1295;51.130;6.732;2024-01-30T01:26:15;9.30;99.90
2571;DHT22;1295;51.130;6.732;2024-01-30T01:28:40;9.30;99.90
2571;DHT22;1295;51.130;6.732;2024-01-30T01:31:06;9.30;99.90
2571;DHT22;1295;51.130;6.732;2024-01-30T01:33:32;9.30;99.90
2571;DHT22;1295;51.130;6.732;2024-01-30T01:35:57;9.40;99.90
2571;DHT22;1295;51.130;6.732;2024-01-30T01:38:23;9.30;99.90
2571;DHT22;1295;51.130;6.732;2024-01-30T01:40:48;9.20;99.90
2571;DHT22;1295;51.130;6.732;2024-01-30T01:43:14;9.30;99.90
2571;DHT22;1295;51.130;6.732;2024-01-30T01:45:40;9.40;99.90
2571;DHT22;1295;51.130;6.732;2024-01-30T01:48:06;9.30;99.90
2571;DHT22;1295;51.130;6.732;2024-01-30T01:50:32;9.30;99.90
2571;DHT22;1295;51.130;6.732;2024-01-30T01:52:58;9.40;99.90
2571;DHT22;1295;51.130;6.732;2024-01-30T01:55:23;9.30;99.90
2571;DHT22;1295;51.130;6.732;2024-01-30T01:57:49;9.20;99.90
2571;DHT22;1295;51.130;6.732;2024-01-30T02:00:15;9.30;99.90
2571;DHT22;1295;51.130;6.732;2024-01-30T02:02:40;9.30;99.90
2571;DHT22;1295;51.130;6.732;2024-01-30T02:05:07;9.20;99.90
2571;DHT22;1295;51.130;6.732;2024-01-30T02:07:33;9.30;99.90
2571;DHT22;1295;51.130;6.732;2024-01-30T02:09:59;9.30;99.90
2571;DHT22;1295;51.130;6.732;2024-01-30T02:12:25;9.20;99.90
2571;DHT22;1295;51.130;6.732;2024-01-30T02:14:50;9.30;99.90
2571;DHT22;1295;51.130;6.732;2024-01-30T02:17:16;9.30;99.90
2571;DHT22;1295;51.130;6.732;2024-01-30T02:19:47;9.30;99.90
2571;DHT22;1295;51.130;6.732;2024-01-30T02:22:12;9.40;99.90
2571;DHT22;1295;51.130;6.732;2024-01-30T02:24:38;9.40;99.90
2571;DHT22;1295;51.130;6.732;2024-01-30T02:27:04;9.30;99.90
2571;DHT22;1295;51.130;6.732;2024-01-30T02:29:30;9.20;99.90
2571;DHT22;1295;51.130;6.732;2024-01-30T02:31:56;9.30;99.90
2571;DHT22;1295;51.130;6.732;2024-01-30T02:34:21;9.30;99.90
2571;DHT22;1295;51.130;6.732;2024-01-30T02:36:47;9.30;99.90
2571;DHT22;1295;51.130;6.732;2024-01-30T02:39:13;9.30;99.90
2571;DHT22;1295;51.130;6.732;2024-01-30T02:41:38;9.30;99.90
2571;DHT22;1295;51.130;6.732;2024-01-30T02:44:05;9.20;99.90
2571;DHT22;1295;51.130;6.732;2024-01-30T02:46:30;9.20;99.90
2571;DHT22;1295;51.130;6.732;2024-01-30T02:48:57;9.20;99.90
2571;DHT22;1295;51.130;6.732;2024-01-30T02:51:22;9.20;99.90
2571;DHT22;1295;51.130;6.732;2024-01-30T02:53:48;9.10;99.90
2571;DHT22;1295;51.130;6.732;2024-01-30T02:56:14;9.10;99.90
2571;DHT22;1295;51.130;6.732;2024-01-30T02:58:40;9.20;99.90
2571;DHT22;1295;51.130;6.732;2024-01-30T03:01:06;9.20;99.90
2571;DHT22;1295;51.130;6.732;2024-01-30T03:03:31;9.20;99.90
2571;DHT22;1295;51.130;6.732;2024-01-30T03:05:57;9.20;99.90
2571;DHT22;1295;51.130;6.732;2024-01-30T03:08:22;9.10;99.90
2571;DHT22;1295;51.130;6.732;2024-01-30T03:10:48;9.20;99.90
2571;DHT22;1295;51.130;6.732;2024-01-30T03:13:14;9.20;99.90
2571;DHT22;1295;51.130;6.732;2024-01-30T03:15:40;9.20;99.90
2571;DHT22;1295;51.130;6.732;2024-01-30T03:18:05;9.20;99.90
2571;DHT22;1295;51.130;6.732;2024-01-30T03:20:31;9.20;99.90
2571;DHT22;1295;51.130;6.732;2024-01-30T03:22:57;9.10;99.90
2571;DHT22;1295;51.130;6.732;2024-01-30T03:25:22;9.20;99.90
2571;DHT22;1295;51.130;6.732;2024-01-30T03:27:49;9.10;99.90
2571;DHT22;1295;51.130;6.732;2024-01-30T03:30:15;9.00;99.90
2571;DHT22;1295;51.130;6.732;2024-01-30T03:32:41;9.00;99.90
2571;DHT22;1295;51.130;6.732;2024-01-30T03:35:08;9.20;99.90
2571;DHT22;1295;51.130;6.732;2024-01-30T03:37:33;9.10;99.90
2571;DHT22;1295;51.130;6.732;2024-01-30T03:39:59;9.10;99.90
2571;DHT22;1295;51.130;6.732;2024-01-30T03:42:25;9.20;99.90
2571;DHT22;1295;51.130;6.732;2024-01-30T03:44:50;9.20;99.90
2571;DHT22;1295;51.130;6.732;2024-01-30T03:47:18;9.10;99.90
2571;DHT22;1295;51.130;6.732;2024-01-30T03:49:44;9.20;99.90
2571;DHT22;1295;51.130;6.732;2024-01-30T03:52:10;9.20;99.90
2571;DHT22;1295;51.130;6.732;2024-01-30T03:54:36;9.20;99.90
2571;DHT22;1295;51.130;6.732;2024-01-30T03:57:03;9.10;99.90
2571;DHT22;1295;51.130;6.732;2024-01-30T03:59:29;9.10;99.90
2571;DHT22;1295;51.130;6.732;2024-01-30T04:01:54;9.00;99.90
2571;DHT22;1295;51.130;6.732;2024-01-30T04:04:20;9.00;99.90
2571;DHT22;1295;51.130;6.732;2024-01-30T04:06:46;9.10;99.90
2571;DHT22;1295;51.130;6.732;2024-01-30T04:09:12;9.10;99.90
2571;DHT22;1295;51.130;6.732;2024-01-30T04:11:38;9.10;99.90
2571;DHT22;1295;51.130;6.732;2024-01-30T04:14:03;9.10;99.90
2571;DHT22;1295;51.130;6.732;2024-01-30T04:16:29;9.10;99.90
2571;DHT22;1295;51.130;6.732;2024-01-30T04:18:55;9.10;99.90
2571;DHT22;1295;51.130;6.732;2024-01-30T04:21:20;9.10;99.90
2571;DHT22;1295;51.130;6.732;2024-01-30T04:23:46;9.10;99.90
2571;DHT22;1295;51.130;6.732;2024-01-30T04:26:12;9.00;99.90
2571;DHT22;1295;51.130;6.732;2024-01-30T04:28:38;9.00;99.90
2571;DHT22;1295;51.130;6.732;2024-01-30T04:31:03;9.00;99.90
2571;DHT22;1295;51.130;6.732;2024-01-30T04:33:29;9.10;99.90
2571;DHT22;1295;51.130;6.732;2024-01-30T04:35:55;8.90;99.90
2571;DHT22;1295;51.130;6.732;2024-01-30T04:38:20;8.90;99.90
2571;DHT22;1295;51.130;6.732;2024-01-30T04:40:46;9.00;99.90
2571;DHT22;1295;51.130;6.732;2024-01-30T04:43:11;8.90;99.90
2571;DHT22;1295;51.130;6.732;2024-01-30T04:45:37;9.00;99.90
2571;DHT22;1295;51.130;6.732;2024-01-30T04:48:03;8.80;99.90
2571;DHT22;1295;51.130;6.732;2024-01-30T04:50:28;8.80;99.90
2571;DHT22;1295;51.130;6.732;2024-01-30T04:52:55;8.80;99.90
2571;DHT22;1295;51.130;6.732;2024-01-30T04:55:20;8.80;99.90
2571;DHT22;1295;51.130;6.732;2024-01-30T04:57:46;8.90;99.90
2571;DHT22;1295;51.130;6.732;2024-01-30T05:00:13;9.00;99.90
2571;DHT22;1295;51.130;6.732;2024-01-30T05:02:39;9.00;99.90
2571;DHT22;1295;51.130;6.732;2024-01-30T05:05:05;9.10;99.90
2571;DHT22;1295;51.130;6.732;2024-01-30T05:07:31;8.90;99.90
2571;DHT22;1295;51.130;6.732;2024-01-30T05:09:57;8.90;99.90
2571;DHT22;1295;51.130;6.732;2024-01-30T05:12:23;8.90;99.90
2571;DHT22;1295;51.130;6.732;2024-01-30T05:14:48;8.80;99.90
2571;DHT22;1295;51.130;6.732;2024-01-30T05:17:14;9.00;99.90
2571;DHT22;1295;51.130;6.732;2024-01-30T05:19:39;9.00;99.90
2571;DHT22;1295;51.130;6.732;2024-01-30T05:22:05;8.90;99.90
2571;DHT22;1295;51.130;6.732;2024-01-30T05:24:31;8.90;99.90
2571;DHT22;1295;51.130;6.732;2024-01-30T05:26:57;8.90;99.90
2571;DHT22;1295;51.130;6.732;2024-01-30T05:29:23;8.90;99.90
2571;DHT22;1295;51.130;6.732;2024-01-30T05:31:48;8.80;99.90
2571;DHT22;1295;51.130;6.732;2024-01-30T05:34:14;8.80;99.90
2571;DHT22;1295;51.130;6.732;2024-01-30T05:36:40;9.00;99.90
2571;DHT22;1295;51.130;6.732;2024-01-30T05:39:06;8.90;99.90
2571;DHT22;1295;51.130;6.732;2024-01-30T05:41:32;8.90;99.90
2571;DHT22;1295;51.130;6.732;2024-01-30T05:43:57;9.00;99.90
2571;DHT22;1295;51.130;6.732;2024-01-30T05:46:23;8.90;99.90
2571;DHT22;1295;51.130;6.732;2024-01-30T05:48:48;8.90;99.90
2571;DHT22;1295;51.130;6.732;2024-01-30T05:51:14;8.90;99.90
2571;DHT22;1295;51.130;6.732;2024-01-30T05:53:40;8.90;99.90
2571;DHT22;1295;51.130;6.732;2024-01-30T05:56:06;8.90;99.90
2571;DHT22;1295;51.130;6.732;2024-01-30T05:58:32;8.90;99.90
2571;DHT22;1295;51.130;6.732;2024-01-30T06:00:57;8.90;99.90
2571;DHT22;1295;51.130;6.732;2024-01-30T06:03:24;8.80;99.90
2571;DHT22;1295;51.130;6.732;2024-01-30T06:05:49;8.70;99.90
2571;DHT22;1295;51.130;6.732;2024-01-30T06:08:15;8.80;99.90
2571;DHT22;1295;51.130;6.732;2024-01-30T06:10:41;8.90;99.90
2571;DHT22;1295;51.130;6.732;2024-01-30T06:13:06;8.90;99.90
2571;DHT22;1295;51.130;6.732;2024-01-30T06:15:33;8.60;99.90
2571;DHT22;1295;51.130;6.732;2024-01-30T06:17:58;8.60;99.90
2571;DHT22;1295;51.130;6.732;2024-01-30T06:20:24;8.70;99.90
2571;DHT22;1295;51.130;6.732;2024-01-30T06:22:50;8.80;99.90
2571;DHT22;1295;51.130;6.732;2024-01-30T06:25:15;8.70;99.90
2571;DHT22;1295;51.130;6.732;2024-01-30T06:27:42;8.70;99.90
2571;DHT22;1295;51.130;6.732;2024-01-30T06:30:08;8.70;99.90
2571;DHT22;1295;51.130;6.732;2024-01-30T06:32:35;8.80;99.90
2571;DHT22;1295;51.130;6.732;2024-01-30T06:35:00;8.80;99.90
2571;DHT22;1295;51.130;6.732;2024-01-30T06:37:26;8.60;99.90
2571;DHT22;1295;51.130;6.732;2024-01-30T06:39:52;8.60;99.90
2571;DHT22;1295;51.130;6.732;2024-01-30T06:42:17;8.60;99.90
2571;DHT22;1295;51.130;6.732;2024-01-30T06:44:43;8.60;99.90
2571;DHT22;1295;51.130;6.732;2024-01-30T06:47:08;8.70;99.90
2571;DHT22;1295;51.130;6.732;2024-01-30T06:49:34;8.70;99.90
2571;DHT22;1295;51.130;6.732;2024-01-30T06:52:00;8.80;99.90
2571;DHT22;1295;51.130;6.732;2024-01-30T06:54:25;8.80;99.90
2571;DHT22;1295;51.130;6.732;2024-01-30T06:56:51;8.80;99.90
2571;DHT22;1295;51.130;6.732;2024-01-30T06:59:17;8.80;99.90
2571;DHT22;1295;51.130;6.732;2024-01-30T07:01:42;8.80;99.90
2571;DHT22;1295;51.130;6.732;2024-01-30T07:04:08;8.80;99.90
2571;DHT22;1295;51.130;6.732;2024-01-30T07:06:33;8.90;99.90
2571;DHT22;1295;51.130;6.732;2024-01-30T07:09:00;8.70;99.90
2571;DHT22;1295;51.130;6.732;2024-01-30T07:11:25;8.70;99.90
2571;DHT22;1295;51.130;6.732;2024-01-30T07:13:51;8.70;99.90
2571;DHT22;1295;51.130;6.732;2024-01-30T07:16:17;8.70;99.90
2571;DHT22;1295;51.130;6.732;2024-01-30T07:18:43;8.70;99.90
2571;DHT22;1295;51.130;6.732;2024-01-30T07:21:08;8.70;99.90
2571;DHT22;1295;51.130;6.732;2024-01-30T07:23:34;8.80;99.90
2571;DHT22;1295;51.130;6.732;2024-01-30T07:26:00;8.80;99.90
2571;DHT22;1295;51.130;6.732;2024-01-30T07:28:25;8.80;99.90
2571;DHT22;1295;51.130;6.732;2024-01-30T07:30:51;8.70;99.90
2571;DHT22;1295;51.130;6.732;2024-01-30T07:33:17;8.80;99.90
2571;DHT22;1295;51.130;6.732;2024-01-30T07:35:42;8.80;99.90
2571;DHT22;1295;51.130;6.732;2024-01-30T07:38:08;8.80;99.90
2571;DHT22;1295;51.130;6.732;2024-01-30T07:40:33;8.80;99.90
2571;DHT22;1295;51.130;6.732;2024-01-30T07:43:00;8.70;99.90
2571;DHT22;1295;51.130;6.732;2024-01-30T07:45:25;8.70;99.90
2571;DHT22;1295;51.130;6.732;2024-01-30T07:47:51;8.70;99.90
2571;DHT22;1295;51.130;6.732;2024-01-30T07:50:17;8.70;99.90
2571;DHT22;1295;51.130;6.732;2024-01-30T07:52:43;8.70;99.90
2571;DHT22;1295;51.130;6.732;2024-01-30T07:55:08;8.70;99.90
2571;DHT22;1295;51.130;6.732;2024-01-30T08:03:03;8.70;99.90
2571;DHT22;1295;51.130;6.732;2024-01-30T08:05:28;8.70;99.90
2571;DHT22;1295;51.130;6.732;2024-01-30T08:07:54;8.70;99.90
2571;DHT22;1295;51.130;6.732;2024-01-30T08:10:19;8.70;99.90
2571;DHT22;1295;51.130;6.732;2024-01-30T08:12:45;8.70;99.90
2571;DHT22;1295;51.130;6.732;2024-01-30T08:15:11;8.70;99.90
2571;DHT22;1295;51.130;6.732;2024-01-30T08:17:37;8.60;99.90
2571;DHT22;1295;51.130;6.732;2024-01-30T08:20:03;8.60;99.90
2571;DHT22;1295;51.130;6.732;2024-01-30T08:22:29;8.60;99.90
2571;DHT22;1295;51.130;6.732;2024-01-30T08:24:55;8.60;99.90
2571;DHT22;1295;51.130;6.732;2024-01-30T08:27:20;8.60;99.90
2571;DHT22;1295;51.130;6.732;2024-01-30T08:29:46;8.70;99.90
2571;DHT22;1295;51.130;6.732;2024-01-30T08:32:11;8.70;99.90
2571;DHT22;1295;51.130;6.732;2024-01-30T08:34:37;8.70;99.90
2571;DHT22;1295;51.130;6.732;2024-01-30T08:37:03;8.70;99.90
2571;DHT22;1295;51.130;6.732;2024-01-30T08:39:28;8.60;99.90
2571;DHT22;1295;51.130;6.732;2024-01-30T08:41:54;8.60;99.90
2571;DHT22;1295;51.130;6.732;2024-01-30T08:44:20;8.50;99.90
2571;DHT22;1295;51.130;6.732;2024-01-30T08:46:45;8.60;99.90
2571;DHT22;1295;51.130;6.732;2024-01-30T08:49:11;8.60;99.90
2571;DHT22;1295;51.130;6.732;2024-01-30T08:51:37;8.70;99.90
2571;DHT22;1295;51.130;6.732;2024-01-30T08:54:03;8.70;99.90
2571;DHT22;1295;51.130;6.732;2024-01-30T08:56:29;8.70;99.90
2571;DHT22;1295;51.130;6.732;2024-01-30T08:58:54;8.60;99.90
2571;DHT22;1295;51.130;6.732;2024-01-30T09:01:20;8.70;99.90
2571;DHT22;1295;51.130;6.732;2024-01-30T09:03:46;8.70;99.90
2571;DHT22;1295;51.130;6.732;2024-01-30T09:06:11;8.70;99.90
2571;DHT22;1295;51.130;6.732;2024-01-30T09:08:37;8.60;99.90
2571;DHT22;1295;51.130;6.732;2024-01-30T09:11:09;8.70;99.90
2571;DHT22;1295;51.130;6.732;2024-01-30T09:13:34;8.60;99.90
2571;DHT22;1295;51.130;6.732;2024-01-30T09:16:00;8.70;99.90
2571;DHT22;1295;51.130;6.732;2024-01-30T09:18:25;8.70;99.90
2571;DHT22;1295;51.130;6.732;2024-01-30T09:20:51;8.70;99.90
2571;DHT22;1295;51.130;6.732;2024-01-30T09:23:17;8.70;99.90
2571;DHT22;1295;51.130;6.732;2024-01-30T09:25:42;8.70;99.90
2571;DHT22;1295;51.130;6.732;2024-01-30T09:28:08;8.80;99.90
2571;DHT22;1295;51.130;6.732;2024-01-30T09:30:34;8.80;99.90
2571;DHT22;1295;51.130;6.732;2024-01-30T09:32:59;8.80;99.90
2571;DHT22;1295;51.130;6.732;2024-01-30T09:35:25;8.90;99.90
2571;DHT22;1295;51.130;6.732;2024-01-30T09:37:50;8.90;99.90
2571;DHT22;1295;51.130;6.732;2024-01-30T09:40:17;8.90;99.90
2571;DHT22;1295;51.130;6.732;2024-01-30T09:42:42;8.80;99.90
2571;DHT22;1295;51.130;6.732;2024-01-30T09:45:08;8.80;99.90
2571;DHT22;1295;51.130;6.732;2024-01-30T09:47:37;8.80;99.90
2571;DHT22;1295;51.130;6.732;2024-01-30T09:49:59;8.80;99.90
2571;DHT22;1295;51.130;6.732;2024-01-30T09:52:25;8.80;99.90
2571;DHT22;1295;51.130;6.732;2024-01-30T09:54:51;8.70;99.90
2571;DHT22;1295;51.130;6.732;2024-01-30T09:57:16;8.70;99.90
2571;DHT22;1295;51.130;6.732;2024-01-30T09:59:42;8.80;99.90
2571;DHT22;1295;51.130;6.732;2024-01-30T10:02:07;8.80;99.90
2571;DHT22;1295;51.130;6.732;2024-01-30T10:04:33;8.80;99.90
2571;DHT22;1295;51.130;6.732;2024-01-30T10:07:00;8.90;99.90
2571;DHT22;1295;51.130;6.732;2024-01-30T10:09:24;8.90;99.90
2571;DHT22;1295;51.130;6.732;2024-01-30T10:11:50;8.90;99.90
2571;DHT22;1295;51.130;6.732;2024-01-30T10:14:15;8.90;99.90
2571;DHT22;1295;51.130;6.732;2024-01-30T10:16:41;8.90;99.90
2571;DHT22;1295;51.130;6.732;2024-01-30T10:19:07;8.90;99.90
2571;DHT22;1295;51.130;6.732;2024-01-30T10:21:32;8.90;99.90
2571;DHT22;1295;51.130;6.732;2024-01-30T10:23:58;8.90;99.90
2571;DHT22;1295;51.130;6.732;2024-01-30T10:26:24;8.90;99.90
2571;DHT22;1295;51.130;6.732;2024-01-30T10:28:49;8.90;99.90
2571;DHT22;1295;51.130;6.732;2024-01-30T10:31:16;8.80;99.90
2571;DHT22;1295;51.130;6.732;2024-01-30T10:33:42;8.80;99.90
2571;DHT22;1295;51.130;6.732;2024-01-30T10:36:08;8.80;99.90
2571;DHT22;1295;51.130;6.732;2024-01-30T10:38:33;8.80;99.90
2571;DHT22;1295;51.130;6.732;2024-01-30T10:41:00;8.90;99.90
2571;DHT22;1295;51.130;6.732;2024-01-30T10:43:42;8.80;99.90
2571;DHT22;1295;51.130;6.732;2024-01-30T10:46:11;8.90;99.90
2571;DHT22;1295;51.130;6.732;2024-01-30T10:48:36;8.90;99.90
2571;DHT22;1295;51.130;6.732;2024-01-30T10:51:02;8.90;99.90
2571;DHT22;1295;51.130;6.732;2024-01-30T10:53:27;8.90;99.90
2571;DHT22;1295;51.130;6.732;2024-01-30T10:55:53;8.90;99.90
2571;DHT22;1295;51.130;6.732;2024-01-30T10:58:18;8.90;99.90
2571;DHT22;1295;51.130;6.732;2024-01-30T11:00:45;9.20;99.90
2571;DHT22;1295;51.130;6.732;2024-01-30T11:03:10;9.20;99.90
2571;DHT22;1295;51.130;6.732;2024-01-30T11:05:40;9.20;99.90
2571;DHT22;1295;51.130;6.732;2024-01-30T11:08:10;9.10;99.90
2571;DHT22;1295;51.130;6.732;2024-01-30T11:10:43;9.10;99.90
2571;DHT22;1295;51.130;6.732;2024-01-30T11:13:09;9.10;99.90
2571;DHT22;1295;51.130;6.732;2024-01-30T11:15:26;9.20;99.90
2571;DHT22;1295;51.130;6.732;2024-01-30T11:17:52;9.10;99.90
2571;DHT22;1295;51.130;6.732;2024-01-30T11:20:22;9.10;99.90
2571;DHT22;1295;51.130;6.732;2024-01-30T11:22:47;9.40;99.90
2571;DHT22;1295;51.130;6.732;2024-01-30T11:25:14;9.30;99.90
2571;DHT22;1295;51.130;6.732;2024-01-30T11:27:39;9.20;99.90
2571;DHT22;1295;51.130;6.732;2024-01-30T11:30:06;9.30;99.90
2571;DHT22;1295;51.130;6.732;2024-01-30T11:32:32;9.40;99.90
2571;DHT22;1295;51.130;6.732;2024-01-30T11:34:58;9.20;99.90
2571;DHT22;1295;51.130;6.732;2024-01-30T11:37:25;9.20;99.90
2571;DHT22;1295;51.130;6.732;2024-01-30T11:39:51;9.60;99.90
2571;DHT22;1295;51.130;6.732;2024-01-30T11:42:17;10.20;99.90
2571;DHT22;1295;51.130;6.732;2024-01-30T11:44:47;10.10;99.90
2571;DHT22;1295;51.130;6.732;2024-01-30T11:47:13;10.30;99.90
2571;DHT22;1295;51.130;6.732;2024-01-30T11:49:38;10.30;99.90
2571;DHT22;1295;51.130;6.732;2024-01-30T11:52:05;10.30;99.90
2571;DHT22;1295;51.130;6.732;2024-01-30T11:54:30;10.30;99.90
2571;DHT22;1295;51.130;6.732;2024-01-30T11:56:57;10.30;99.90
2571;DHT22;1295;51.130;6.732;2024-01-30T11:59:23;9.90;99.90
2571;DHT22;1295;51.130;6.732;2024-01-30T12:01:49;9.90;99.90
2571;DHT22;1295;51.130;6.732;2024-01-30T12:04:14;10.10;99.90
2571;DHT22;1295;51.130;6.732;2024-01-30T12:06:41;9.90;99.90
2571;DHT22;1295;51.130;6.732;2024-01-30T12:09:06;9.90;99.90
2571;DHT22;1295;51.130;6.732;2024-01-30T12:11:33;10.10;99.90
2571;DHT22;1295;51.130;6.732;2024-01-30T12:13:58;9.90;99.90
2571;DHT22;1295;51.130;6.732;2024-01-30T12:16:24;10.10;99.90
2571;DHT22;1295;51.130;6.732;2024-01-30T12:18:58;10.00;99.90
2571;DHT22;1295;51.130;6.732;2024-01-30T12:21:16;10.30;99.90
2571;DHT22;1295;51.130;6.732;2024-01-30T12:23:42;10.40;99.90
2571;DHT22;1295;51.130;6.732;2024-01-30T12:26:07;10.20;99.90
2571;DHT22;1295;51.130;6.732;2024-01-30T12:28:33;10.10;99.90
2571;DHT22;1295;51.130;6.732;2024-01-30T12:31:01;10.00;99.90
2571;DHT22;1295;51.130;6.732;2024-01-30T12:33:26;10.50;99.90
2571;DHT22;1295;51.130;6.732;2024-01-30T12:35:52;10.40;99.90
2571;DHT22;1295;51.130;6.732;2024-01-30T12:38:17;10.60;99.90
2571;DHT22;1295;51.130;6.732;2024-01-30T12:40:43;10.90;99.90
2571;DHT22;1295;51.130;6.732;2024-01-30T12:43:08;10.60;99.90
2571;DHT22;1295;51.130;6.732;2024-01-30T12:45:35;10.60;99.90
2571;DHT22;1295;51.130;6.732;2024-01-30T12:48:00;10.40;99.90
2571;DHT22;1295;51.130;6.732;2024-01-30T12:50:25;10.30;99.90
2571;DHT22;1295;51.130;6.732;2024-01-30T12:52:51;10.40;99.90
2571;DHT22;1295;51.130;6.732;2024-01-30T12:55:17;10.60;99.90
2571;DHT22;1295;51.130;6.732;2024-01-30T12:57:42;10.70;99.90
2571;DHT22;1295;51.130;6.732;2024-01-30T13:00:08;11.00;99.90
2571;DHT22;1295;51.130;6.732;2024-01-30T13:02:34;10.80;99.90
2571;DHT22;1295;51.130;6.732;2024-01-30T13:05:00;10.90;99.90
2571;DHT22;1295;51.130;6.732;2024-01-30T13:07:25;10.70;99.90
2571;DHT22;1295;51.130;6.732;2024-01-30T13:09:51;10.70;99.90
2571;DHT22;1295;51.130;6.732;2024-01-30T13:12:16;10.60;99.90
2571;DHT22;1295;51.130;6.732;2024-01-30T13:14:42;10.70;99.90
2571;DHT22;1295;51.130;6.732;2024-01-30T13:17:08;10.70;99.90
2571;DHT22;1295;51.130;6.732;2024-01-30T13:19:33;10.70;99.90
2571;DHT22;1295;51.130;6.732;2024-01-30T13:21:59;10.50;99.90
2571;DHT22;1295;51.130;6.732;2024-01-30T13:24:25;10.30;99.90
2571;DHT22;1295;51.130;6.732;2024-01-30T13:26:50;10.50;99.90
2571;DHT22;1295;51.130;6.732;2024-01-30T13:29:16;10.50;99.90
2571;DHT22;1295;51.130;6.732;2024-01-30T13:31:41;10.70;99.90
2571;DHT22;1295;51.130;6.732;2024-01-30T13:34:07;10.50;99.90
2571;DHT22;1295;51.130;6.732;2024-01-30T13:36:33;10.40;99.90
2571;DHT22;1295;51.130;6.732;2024-01-30T13:38:59;10.40;99.90
2571;DHT22;1295;51.130;6.732;2024-01-30T13:41:25;10.40;99.90
2571;DHT22;1295;51.130;6.732;2024-01-30T13:43:50;10.30;99.90
2571;DHT22;1295;51.130;6.732;2024-01-30T13:46:16;10.40;99.90
2571;DHT22;1295;51.130;6.732;2024-01-30T13:48:41;10.50;99.90
2571;DHT22;1295;51.130;6.732;2024-01-30T13:51:07;10.50;99.90
2571;DHT22;1295;51.130;6.732;2024-01-30T13:53:33;10.70;99.90
2571;DHT22;1295;51.130;6.732;2024-01-30T13:55:59;10.60;99.90
2571;DHT22;1295;51.130;6.732;2024-01-30T13:58:25;10.60;99.90
2571;DHT22;1295;51.130;6.732;2024-01-30T14:00:51;10.50;99.90
2571;DHT22;1295;51.130;6.732;2024-01-30T14:03:17;10.50;99.90
2571;DHT22;1295;51.130;6.732;2024-01-30T14:05:42;10.80;99.90
2571;DHT22;1295;51.130;6.732;2024-01-30T14:08:08;10.50;99.90
2571;DHT22;1295;51.130;6.732;2024-01-30T14:10:34;10.50;99.90
2571;DHT22;1295;51.130;6.732;2024-01-30T14:12:59;10.60;99.90
2571;DHT22;1295;51.130;6.732;2024-01-30T14:15:25;10.60;99.90
2571;DHT22;1295;51.130;6.732;2024-01-30T14:17:51;10.40;99.90
2571;DHT22;1295;51.130;6.732;2024-01-30T14:20:17;10.40;99.90
2571;DHT22;1295;51.130;6.732;2024-01-30T14:22:42;10.50;99.90
2571;DHT22;1295;51.130;6.732;2024-01-30T14:25:08;10.40;99.90
2571;DHT22;1295;51.130;6.732;2024-01-30T14:27:34;10.50;99.90
2571;DHT22;1295;51.130;6.732;2024-01-30T14:29:59;10.50;99.90
2571;DHT22;1295;51.130;6.732;2024-01-30T14:32:25;10.40;99.90
2571;DHT22;1295;51.130;6.732;2024-01-30T14:34:51;10.40;99.90
2571;DHT22;1295;51.130;6.732;2024-01-30T14:37:16;10.50;99.90
2571;DHT22;1295;51.130;6.732;2024-01-30T14:39:42;10.40;99.90
2571;DHT22;1295;51.130;6.732;2024-01-30T14:42:07;10.50;99.90
2571;DHT22;1295;51.130;6.732;2024-01-30T14:44:33;10.50;99.90
2571;DHT22;1295;51.130;6.732;2024-01-30T14:46:59;10.60;99.90
2571;DHT22;1295;51.130;6.732;2024-01-30T14:49:24;10.50;99.90
2571;DHT22;1295;51.130;6.732;2024-01-30T14:51:50;10.50;99.90
2571;DHT22;1295;51.130;6.732;2024-01-30T14:54:15;10.60;99.90
2571;DHT22;1295;51.130;6.732;2024-01-30T14:56:41;10.70;99.90
2571;DHT22;1295;51.130;6.732;2024-01-30T14:59:07;10.60;99.90
2571;DHT22;1295;51.130;6.732;2024-01-30T15:01:32;10.60;99.90
2571;DHT22;1295;51.130;6.732;2024-01-30T15:03:59;10.70;99.90
2571;DHT22;1295;51.130;6.732;2024-01-30T15:06:25;10.80;99.90
2571;DHT22;1295;51.130;6.732;2024-01-30T15:08:52;10.70;99.90
2571;DHT22;1295;51.130;6.732;2024-01-30T15:11:17;10.70;99.90
2571;DHT22;1295;51.130;6.732;2024-01-30T15:13:43;10.80;99.90
2571;DHT22;1295;51.130;6.732;2024-01-30T15:16:09;10.70;99.90
2571;DHT22;1295;51.130;6.732;2024-01-30T15:18:34;10.80;99.90
2571;DHT22;1295;51.130;6.732;2024-01-30T15:21:00;10.80;99.90
2571;DHT22;1295;51.130;6.732;2024-01-30T15:23:26;10.70;99.90
2571;DHT22;1295;51.130;6.732;2024-01-30T15:25:52;10.80;99.90
2571;DHT22;1295;51.130;6.732;2024-01-30T15:28:18;10.80;99.90
2571;DHT22;1295;51.130;6.732;2024-01-30T15:30:49;10.80;99.90
2571;DHT22;1295;51.130;6.732;2024-01-30T15:33:14;10.60;99.90
2571;DHT22;1295;51.130;6.732;2024-01-30T15:35:40;10.50;99.90
2571;DHT22;1295;51.130;6.732;2024-01-30T15:38:06;10.50;99.90
2571;DHT22;1295;51.130;6.732;2024-01-30T15:40:31;10.60;99.90
2571;DHT22;1295;51.130;6.732;2024-01-30T15:42:57;10.60;99.90
2571;DHT22;1295;51.130;6.732;2024-01-30T15:45:22;10.60;99.90
2571;DHT22;1295;51.130;6.732;2024-01-30T15:47:53;10.50;99.90
2571;DHT22;1295;51.130;6.732;2024-01-30T15:50:24;10.50;99.90
2571;DHT22;1295;51.130;6.732;2024-01-30T15:52:49;10.50;99.90
2571;DHT22;1295;51.130;6.732;2024-01-30T15:55:15;10.40;99.90
2571;DHT22;1295;51.130;6.732;2024-01-30T15:57:40;10.50;99.90
2571;DHT22;1295;51.130;6.732;2024-01-30T16:00:07;10.50;99.90
2571;DHT22;1295;51.130;6.732;2024-01-30T16:02:34;10.40;99.90
2571;DHT22;1295;51.130;6.732;2024-01-30T16:05:00;10.40;99.90
2571;DHT22;1295;51.130;6.732;2024-01-30T16:07:26;10.40;99.90
2571;DHT22;1295;51.130;6.732;2024-01-30T16:09:51;10.40;99.90